sensor_id;sensor_type;location;lat;lon;timestamp;P1;P2;P0
65680;PMS5003;61747;54.966;73.394;2022-09-28T00:00:53;0.00;0.00;0.00
65680;PMS5003;61747;54.966;73.394;2022-09-28T00:03:28;0.00;0.00;0.00
65680;PMS5003;61747;54.966;73.394;2022-09-28T00:06:02;0.00;0.00;0.00
65680;PMS5003;61747;54.966;73.394;2022-09-28T00:08:40;0.00;0.00;0.00
65680;PMS5003;61747;54.966;73.394;2022-09-28T00:11:06;0.00;0.00;0.00
65680;PMS5003;61747;54.966;73.394;2022-09-28T00:13:32;0.00;0.00;0.00
65680;PMS5003;61747;54.966;73.394;2022-09-28T00:18:32;0.00;0.00;0.00
65680;PMS5003;61747;54.966;73.394;2022-09-28T00:21:08;0.00;0.00;0.00
65680;PMS5003;61747;54.966;73.394;2022-09-28T00:23:37;0.00;0.00;0.00
65680;PMS5003;61747;54.966;73.394;2022-09-28T00:26:23;0.00;0.00;0.00
65680;PMS5003;61747;54.966;73.394;2022-09-28T00:28:52;0.00;0.00;0.00
65680;PMS5003;61747;54.966;73.394;2022-09-28T00:31:18;0.00;0.00;0.00
65680;PMS5003;61747;54.966;73.394;2022-09-28T00:33:43;0.00;0.00;0.00
65680;PMS5003;61747;54.966;73.394;2022-09-28T00:36:09;0.00;0.00;0.00
65680;PMS5003;61747;54.966;73.394;2022-09-28T00:38:35;0.00;0.00;0.00
65680;PMS5003;61747;54.966;73.394;2022-09-28T00:41:01;1.00;0.00;0.00
65680;PMS5003;61747;54.966;73.394;2022-09-28T00:43:27;0.00;0.00;0.00
65680;PMS5003;61747;54.966;73.394;2022-09-28T00:46:44;0.00;0.00;0.00
65680;PMS5003;61747;54.966;73.394;2022-09-28T00:48:52;0.00;0.00;0.00
65680;PMS5003;61747;54.966;73.394;2022-09-28T00:51:19;0.00;0.00;0.00
65680;PMS5003;61747;54.966;73.394;2022-09-28T00:53:45;0.00;0.00;0.00
65680;PMS5003;61747;54.966;73.394;2022-09-28T00:56:14;0.00;0.00;0.00
65680;PMS5003;61747;54.966;73.394;2022-09-28T00:58:45;0.00;0.00;0.00
65680;PMS5003;61747;54.966;73.394;2022-09-28T01:01:11;0.00;0.00;0.00
65680;PMS5003;61747;54.966;73.394;2022-09-28T01:03:37;0.00;0.00;0.00
65680;PMS5003;61747;54.966;73.394;2022-09-28T01:06:10;0.00;0.00;0.00
65680;PMS5003;61747;54.966;73.394;2022-09-28T01:08:50;0.00;0.00;0.00
65680;PMS5003;61747;54.966;73.394;2022-09-28T01:11:17;0.00;0.00;0.00
65680;PMS5003;61747;54.966;73.394;2022-09-28T01:13:53;0.00;0.00;0.00
65680;PMS5003;61747;54.966;73.394;2022-09-28T01:21:30;0.00;0.00;0.00
65680;PMS5003;61747;54.966;73.394;2022-09-28T01:24:07;0.00;0.00;0.00
65680;PMS5003;61747;54.966;73.394;2022-09-28T01:29:36;0.00;0.00;0.00
65680;PMS5003;61747;54.966;73.394;2022-09-28T01:32:20;0.00;0.00;0.00
65680;PMS5003;61747;54.966;73.394;2022-09-28T01:38:36;0.00;0.00;0.00
65680;PMS5003;61747;54.966;73.394;2022-09-28T01:40:29;0.00;0.00;0.00
65680;PMS5003;61747;54.966;73.394;2022-09-28T01:43:03;0.00;0.00;0.00
65680;PMS5003;61747;54.966;73.394;2022-09-28T01:45:36;0.00;0.00;0.00
65680;PMS5003;61747;54.966;73.394;2022-09-28T01:48:04;0.00;0.00;0.00
65680;PMS5003;61747;54.966;73.394;2022-09-28T01:50:34;0.00;0.00;0.00
65680;PMS5003;61747;54.966;73.394;2022-09-28T01:53:10;0.00;0.00;0.00
65680;PMS5003;61747;54.966;73.394;2022-09-28T01:55:38;0.00;0.00;0.00
65680;PMS5003;61747;54.966;73.394;2022-09-28T01:58:11;0.00;0.00;0.00
65680;PMS5003;61747;54.966;73.394;2022-09-28T02:00:50;0.00;0.00;0.00
65680;PMS5003;61747;54.966;73.394;2022-09-28T02:03:25;0.00;0.00;0.00
65680;PMS5003;61747;54.966;73.394;2022-09-28T02:05:59;0.00;0.00;0.00
65680;PMS5003;61747;54.966;73.394;2022-09-28T02:08:33;0.00;0.00;0.00
65680;PMS5003;61747;54.966;73.394;2022-09-28T02:11:13;0.00;0.00;0.00
65680;PMS5003;61747;54.966;73.394;2022-09-28T02:13:49;0.00;0.00;0.00
65680;PMS5003;61747;54.966;73.394;2022-09-28T02:19:03;0.00;0.00;0.00
65680;PMS5003;61747;54.966;73.394;2022-09-28T02:24:19;0.00;0.00;0.00
65680;PMS5003;61747;54.966;73.394;2022-09-28T02:26:49;0.00;0.00;0.00
65680;PMS5003;61747;54.966;73.394;2022-09-28T02:29:16;0.00;0.00;0.00
65680;PMS5003;61747;54.966;73.394;2022-09-28T02:31:42;0.00;0.00;0.00
65680;PMS5003;61747;54.966;73.394;2022-09-28T02:34:08;0.00;0.00;0.00
65680;PMS5003;61747;54.966;73.394;2022-09-28T02:36:39;0.00;0.00;0.00
65680;PMS5003;61747;54.966;73.394;2022-09-28T02:39:11;0.00;0.00;0.00
65680;PMS5003;61747;54.966;73.394;2022-09-28T02:50:08;0.00;0.00;0.00
65680;PMS5003;61747;54.966;73.394;2022-09-28T02:58:59;0.00;0.00;0.00
65680;PMS5003;61747;54.966;73.394;2022-09-28T03:00:53;0.00;0.00;0.00
65680;PMS5003;61747;54.966;73.394;2022-09-28T03:03:26;0.00;0.00;0.00
65680;PMS5003;61747;54.966;73.394;2022-09-28T03:08:43;0.00;0.00;0.00
65680;PMS5003;61747;54.966;73.394;2022-09-28T03:11:19;0.00;0.00;0.00
65680;PMS5003;61747;54.966;73.394;2022-09-28T03:13:53;0.00;0.00;0.00
65680;PMS5003;61747;54.966;73.394;2022-09-28T03:16:24;0.00;0.00;0.00
65680;PMS5003;61747;54.966;73.394;2022-09-28T03:18:52;0.00;0.00;0.00
65680;PMS5003;61747;54.966;73.394;2022-09-28T03:21:23;0.00;0.00;0.00
65680;PMS5003;61747;54.966;73.394;2022-09-28T03:23:53;0.00;0.00;0.00
65680;PMS5003;61747;54.966;73.394;2022-09-28T03:26:20;0.00;0.00;0.00
65680;PMS5003;61747;54.966;73.394;2022-09-28T03:28:55;0.00;0.00;0.00
65680;PMS5003;61747;54.966;73.394;2022-09-28T03:31:23;0.00;0.00;0.00
65680;PMS5003;61747;54.966;73.394;2022-09-28T03:33:51;0.00;0.00;0.00
65680;PMS5003;61747;54.966;73.394;2022-09-28T03:36:17;0.00;0.00;0.00
65680;PMS5003;61747;54.966;73.394;2022-09-28T03:38:43;0.00;0.00;0.00
65680;PMS5003;61747;54.966;73.394;2022-09-28T03:41:09;0.00;0.00;0.00
65680;PMS5003;61747;54.966;73.394;2022-09-28T03:43:38;0.00;0.00;0.00
65680;PMS5003;61747;54.966;73.394;2022-09-28T03:46:04;0.00;0.00;0.00
65680;PMS5003;61747;54.966;73.394;2022-09-28T03:48:42;0.00;0.00;0.00
65680;PMS5003;61747;54.966;73.394;2022-09-28T03:51:09;0.00;0.00;0.00
65680;PMS5003;61747;54.966;73.394;2022-09-28T03:53:42;0.75;0.00;0.00
65680;PMS5003;61747;54.966;73.394;2022-09-28T03:56:15;0.00;0.00;0.00
65680;PMS5003;61747;54.966;73.394;2022-09-28T03:58:41;0.00;0.00;0.00
65680;PMS5003;61747;54.966;73.394;2022-09-28T04:01:10;0.00;0.00;0.00
65680;PMS5003;61747;54.966;73.394;2022-09-28T04:03:42;0.00;0.00;0.00
65680;PMS5003;61747;54.966;73.394;2022-09-28T04:06:18;0.00;0.00;0.00
65680;PMS5003;61747;54.966;73.394;2022-09-28T04:08:54;0.00;0.00;0.00
65680;PMS5003;61747;54.966;73.394;2022-09-28T04:11:20;0.00;0.00;0.00
65680;PMS5003;61747;54.966;73.394;2022-09-28T04:13:49;0.00;0.00;0.00
65680;PMS5003;61747;54.966;73.394;2022-09-28T04:16:15;0.00;0.00;0.00
65680;PMS5003;61747;54.966;73.394;2022-09-28T04:18:48;1.00;0.00;0.00
65680;PMS5003;61747;54.966;73.394;2022-09-28T04:21:43;0.00;0.00;0.00
65680;PMS5003;61747;54.966;73.394;2022-09-28T04:24:12;1.75;0.00;0.00
65680;PMS5003;61747;54.966;73.394;2022-09-28T04:26:38;0.00;0.00;0.00
65680;PMS5003;61747;54.966;73.394;2022-09-28T04:29:05;0.00;0.00;0.00
65680;PMS5003;61747;54.966;73.394;2022-09-28T04:31:48;0.00;0.00;0.00
65680;PMS5003;61747;54.966;73.394;2022-09-28T04:34:16;0.00;0.00;0.00
65680;PMS5003;61747;54.966;73.394;2022-09-28T04:36:47;0.25;0.00;0.00
65680;PMS5003;61747;54.966;73.394;2022-09-28T04:39:14;2.00;2.00;0.00
65680;PMS5003;61747;54.966;73.394;2022-09-28T04:41:43;0.00;0.00;0.00
65680;PMS5003;61747;54.966;73.394;2022-09-28T04:44:11;0.00;0.00;0.00
65680;PMS5003;61747;54.966;73.394;2022-09-28T04:46:37;0.00;0.00;0.00
65680;PMS5003;61747;54.966;73.394;2022-09-28T04:49:21;0.00;0.00;0.00
65680;PMS5003;61747;54.966;73.394;2022-09-28T04:51:53;0.00;0.00;0.00
65680;PMS5003;61747;54.966;73.394;2022-09-28T04:54:19;0.00;0.00;0.00
65680;PMS5003;61747;54.966;73.394;2022-09-28T04:56:44;0.00;0.00;0.00
65680;PMS5003;61747;54.966;73.394;2022-09-28T04:59:16;0.00;0.00;0.00
65680;PMS5003;61747;54.966;73.394;2022-09-28T05:01:43;0.00;0.00;0.00
65680;PMS5003;61747;54.966;73.394;2022-09-28T05:04:26;0.00;0.00;0.00
65680;PMS5003;61747;54.966;73.394;2022-09-28T05:07:25;0.00;0.00;0.00
65680;PMS5003;61747;54.966;73.394;2022-09-28T05:09:56;0.00;0.00;0.00
65680;PMS5003;61747;54.966;73.394;2022-09-28T05:12:22;0.00;0.00;0.00
65680;PMS5003;61747;54.966;73.394;2022-09-28T05:14:48;0.00;0.00;0.00
65680;PMS5003;61747;54.966;73.394;2022-09-28T05:17:19;0.00;0.00;0.00
65680;PMS5003;61747;54.966;73.394;2022-09-28T05:20:17;0.00;0.00;0.00
65680;PMS5003;61747;54.966;73.394;2022-09-28T05:22:43;0.00;0.00;0.00
65680;PMS5003;61747;54.966;73.394;2022-09-28T05:25:09;1.00;1.00;0.00
65680;PMS5003;61747;54.966;73.394;2022-09-28T05:27:56;0.00;0.00;0.00
65680;PMS5003;61747;54.966;73.394;2022-09-28T05:30:44;2.00;0.00;0.00
65680;PMS5003;61747;54.966;73.394;2022-09-28T05:33:36;0.75;0.75;0.00
65680;PMS5003;61747;54.966;73.394;2022-09-28T05:36:11;1.00;1.00;0.00
65680;PMS5003;61747;54.966;73.394;2022-09-28T05:38:37;1.25;1.00;0.00
65680;PMS5003;61747;54.966;73.394;2022-09-28T05:41:03;1.00;0.00;0.00
65680;PMS5003;61747;54.966;73.394;2022-09-28T05:43:28;0.50;0.00;0.00
65680;PMS5003;61747;54.966;73.394;2022-09-28T05:45:54;0.00;0.00;0.00
65680;PMS5003;61747;54.966;73.394;2022-09-28T05:48:20;2.00;1.00;0.00
65680;PMS5003;61747;54.966;73.394;2022-09-28T05:50:50;1.00;1.00;0.00
65680;PMS5003;61747;54.966;73.394;2022-09-28T05:53:16;0.00;0.00;0.00
65680;PMS5003;61747;54.966;73.394;2022-09-28T05:55:42;1.00;1.00;0.00
65680;PMS5003;61747;54.966;73.394;2022-09-28T05:58:08;0.00;0.00;0.00
65680;PMS5003;61747;54.966;73.394;2022-09-28T06:00:34;2.00;0.50;0.00
65680;PMS5003;61747;54.966;73.394;2022-09-28T06:03:02;0.00;0.00;0.00
65680;PMS5003;61747;54.966;73.394;2022-09-28T06:05:32;0.00;0.00;0.00
65680;PMS5003;61747;54.966;73.394;2022-09-28T06:08:02;0.00;0.00;0.00
65680;PMS5003;61747;54.966;73.394;2022-09-28T06:10:30;1.00;1.00;0.00
65680;PMS5003;61747;54.966;73.394;2022-09-28T06:12:59;0.00;0.00;0.00
65680;PMS5003;61747;54.966;73.394;2022-09-28T06:15:26;0.00;0.00;0.00
65680;PMS5003;61747;54.966;73.394;2022-09-28T06:17:58;0.75;0.00;0.00
65680;PMS5003;61747;54.966;73.394;2022-09-28T06:20:53;0.00;0.00;0.00
65680;PMS5003;61747;54.966;73.394;2022-09-28T06:23:29;1.50;0.00;0.00
65680;PMS5003;61747;54.966;73.394;2022-09-28T06:25:57;1.00;1.00;0.00
65680;PMS5003;61747;54.966;73.394;2022-09-28T06:28:23;1.00;1.00;0.00
65680;PMS5003;61747;54.966;73.394;2022-09-28T06:30:49;0.00;0.00;0.00
65680;PMS5003;61747;54.966;73.394;2022-09-28T06:33:16;0.00;0.00;0.00
65680;PMS5003;61747;54.966;73.394;2022-09-28T06:35:42;0.00;0.00;0.00
65680;PMS5003;61747;54.966;73.394;2022-09-28T06:38:08;0.00;0.00;0.00
65680;PMS5003;61747;54.966;73.394;2022-09-28T06:40:34;0.00;0.00;0.00
65680;PMS5003;61747;54.966;73.394;2022-09-28T06:43:10;0.25;0.00;0.00
65680;PMS5003;61747;54.966;73.394;2022-09-28T06:45:55;0.00;0.00;0.00
65680;PMS5003;61747;54.966;73.394;2022-09-28T06:48:39;0.00;0.00;0.00
65680;PMS5003;61747;54.966;73.394;2022-09-28T06:51:08;0.00;0.00;0.00
65680;PMS5003;61747;54.966;73.394;2022-09-28T06:53:45;0.00;0.00;0.00
65680;PMS5003;61747;54.966;73.394;2022-09-28T06:56:31;0.00;0.00;0.00
65680;PMS5003;61747;54.966;73.394;2022-09-28T06:58:57;2.75;1.50;0.00
65680;PMS5003;61747;54.966;73.394;2022-09-28T07:01:22;2.00;2.00;0.00
65680;PMS5003;61747;54.966;73.394;2022-09-28T07:04:16;2.00;1.25;0.00
65680;PMS5003;61747;54.966;73.394;2022-09-28T07:07:00;2.00;2.00;0.00
65680;PMS5003;61747;54.966;73.394;2022-09-28T07:09:51;1.00;1.00;0.00
65680;PMS5003;61747;54.966;73.394;2022-09-28T07:12:33;1.25;1.00;0.00
65680;PMS5003;61747;54.966;73.394;2022-09-28T07:15:01;2.00;2.00;0.00
65680;PMS5003;61747;54.966;73.394;2022-09-28T07:17:37;4.00;2.75;1.00
65680;PMS5003;61747;54.966;73.394;2022-09-28T07:20:02;2.25;2.25;0.00
65680;PMS5003;61747;54.966;73.394;2022-09-28T07:22:30;4.25;3.50;1.00
65680;PMS5003;61747;54.966;73.394;2022-09-28T07:24:56;5.00;2.50;0.00
65680;PMS5003;61747;54.966;73.394;2022-09-28T07:27:40;4.00;4.00;2.00
65680;PMS5003;61747;54.966;73.394;2022-09-28T07:30:25;8.50;6.50;2.00
65680;PMS5003;61747;54.966;73.394;2022-09-28T07:33:01;11.00;6.00;2.00
65680;PMS5003;61747;54.966;73.394;2022-09-28T07:35:51;7.00;4.00;2.00
65680;PMS5003;61747;54.966;73.394;2022-09-28T07:38:19;7.00;4.50;2.00
65680;PMS5003;61747;54.966;73.394;2022-09-28T07:40:44;5.00;4.00;1.00
65680;PMS5003;61747;54.966;73.394;2022-09-28T07:43:29;9.75;7.25;2.25
65680;PMS5003;61747;54.966;73.394;2022-09-28T07:45:58;13.25;11.00;4.00
65680;PMS5003;61747;54.966;73.394;2022-09-28T07:48:24;14.25;12.00;4.75
65680;PMS5003;61747;54.966;73.394;2022-09-28T07:51:15;13.75;10.25;4.00
65680;PMS5003;61747;54.966;73.394;2022-09-28T07:53:54;14.00;12.00;4.00
65680;PMS5003;61747;54.966;73.394;2022-09-28T07:56:25;17.75;12.00;4.00
65680;PMS5003;61747;54.966;73.394;2022-09-28T07:59:05;14.25;11.50;3.25
65680;PMS5003;61747;54.966;73.394;2022-09-28T08:01:47;13.00;9.50;3.25
65680;PMS5003;61747;54.966;73.394;2022-09-28T08:04:15;14.00;12.00;3.00
65680;PMS5003;61747;54.966;73.394;2022-09-28T08:06:43;12.00;7.25;2.00
65680;PMS5003;61747;54.966;73.394;2022-09-28T08:09:11;4.00;4.00;0.00
65680;PMS5003;61747;54.966;73.394;2022-09-28T08:11:57;3.00;1.00;0.00
65680;PMS5003;61747;54.966;73.394;2022-09-28T08:14:42;0.00;0.00;0.00
65680;PMS5003;61747;54.966;73.394;2022-09-28T08:17:44;1.25;0.00;0.00
65680;PMS5003;61747;54.966;73.394;2022-09-28T08:20:10;1.00;1.00;0.00
65680;PMS5003;61747;54.966;73.394;2022-09-28T08:23:06;1.00;1.00;0.00
65680;PMS5003;61747;54.966;73.394;2022-09-28T08:25:34;1.25;1.00;0.00
65680;PMS5003;61747;54.966;73.394;2022-09-28T08:28:04;3.00;2.50;0.00
65680;PMS5003;61747;54.966;73.394;2022-09-28T08:30:34;1.00;0.00;0.00
65680;PMS5003;61747;54.966;73.394;2022-09-28T08:33:32;1.00;0.00;0.00
65680;PMS5003;61747;54.966;73.394;2022-09-28T08:36:17;1.50;0.50;0.00
65680;PMS5003;61747;54.966;73.394;2022-09-28T08:39:09;1.00;1.00;0.00
65680;PMS5003;61747;54.966;73.394;2022-09-28T08:44:56;0.00;0.00;0.00
65680;PMS5003;61747;54.966;73.394;2022-09-28T08:51:00;0.00;0.00;0.00
65680;PMS5003;61747;54.966;73.394;2022-09-28T08:53:47;0.00;0.00;0.00
65680;PMS5003;61747;54.966;73.394;2022-09-28T08:56:34;0.00;0.00;0.00
65680;PMS5003;61747;54.966;73.394;2022-09-28T08:59:06;0.00;0.00;0.00
65680;PMS5003;61747;54.966;73.394;2022-09-28T09:01:35;0.00;0.00;0.00
65680;PMS5003;61747;54.966;73.394;2022-09-28T09:04:06;0.00;0.00;0.00
65680;PMS5003;61747;54.966;73.394;2022-09-28T09:09:46;0.00;0.00;0.00
65680;PMS5003;61747;54.966;73.394;2022-09-28T09:25:49;0.75;0.00;0.00
65680;PMS5003;61747;54.966;73.394;2022-09-28T09:37:04;2.00;1.00;0.00
65680;PMS5003;61747;54.966;73.394;2022-09-28T09:45:51;3.75;2.00;0.00
65680;PMS5003;61747;54.966;73.394;2022-09-28T09:53:52;4.00;3.00;1.00
65680;PMS5003;61747;54.966;73.394;2022-09-28T09:59:26;4.00;4.00;2.00
65680;PMS5003;61747;54.966;73.394;2022-09-28T10:05:38;4.00;3.00;0.00
65680;PMS5003;61747;54.966;73.394;2022-09-28T10:07:43;3.00;2.00;0.00
65680;PMS5003;61747;54.966;73.394;2022-09-28T10:10:13;3.00;2.00;0.00
65680;PMS5003;61747;54.966;73.394;2022-09-28T10:12:55;4.00;4.00;1.00
65680;PMS5003;61747;54.966;73.394;2022-09-28T10:15:25;3.75;3.00;2.00
65680;PMS5003;61747;54.966;73.394;2022-09-28T10:18:05;4.00;4.00;2.00
65680;PMS5003;61747;54.966;73.394;2022-09-28T10:20:54;4.50;2.25;1.00
65680;PMS5003;61747;54.966;73.394;2022-09-28T10:23:35;2.00;2.00;0.00
65680;PMS5003;61747;54.966;73.394;2022-09-28T10:26:13;3.50;3.00;1.00
65680;PMS5003;61747;54.966;73.394;2022-09-28T10:28:47;4.00;3.00;1.00
65680;PMS5003;61747;54.966;73.394;2022-09-28T10:34:04;2.00;0.00;0.00
65680;PMS5003;61747;54.966;73.394;2022-09-28T10:36:31;1.00;0.00;0.00
65680;PMS5003;61747;54.966;73.394;2022-09-28T10:39:04;1.25;0.00;0.00
65680;PMS5003;61747;54.966;73.394;2022-09-28T10:41:35;0.75;0.25;0.00
65680;PMS5003;61747;54.966;73.394;2022-09-28T10:44:14;0.00;0.00;0.00
65680;PMS5003;61747;54.966;73.394;2022-09-28T10:47:05;0.00;0.00;0.00
65680;PMS5003;61747;54.966;73.394;2022-09-28T10:49:38;1.00;0.00;0.00
65680;PMS5003;61747;54.966;73.394;2022-09-28T10:52:08;0.00;0.00;0.00
65680;PMS5003;61747;54.966;73.394;2022-09-28T10:54:53;0.00;0.00;0.00
65680;PMS5003;61747;54.966;73.394;2022-09-28T10:57:54;2.00;1.25;0.00
65680;PMS5003;61747;54.966;73.394;2022-09-28T11:00:36;0.75;0.50;0.00
65680;PMS5003;61747;54.966;73.394;2022-09-28T11:03:31;0.00;0.00;0.00
65680;PMS5003;61747;54.966;73.394;2022-09-28T11:06:04;1.25;0.00;0.00
65680;PMS5003;61747;54.966;73.394;2022-09-28T11:08:38;2.00;1.00;0.00
65680;PMS5003;61747;54.966;73.394;2022-09-28T11:11:14;2.00;2.00;0.00
65680;PMS5003;61747;54.966;73.394;2022-09-28T11:14:02;2.00;2.00;0.00
65680;PMS5003;61747;54.966;73.394;2022-09-28T11:16:33;2.00;1.00;0.00
65680;PMS5003;61747;54.966;73.394;2022-09-28T11:21:52;2.75;2.00;0.00
65680;PMS5003;61747;54.966;73.394;2022-09-28T11:24:22;2.00;2.00;0.00
65680;PMS5003;61747;54.966;73.394;2022-09-28T11:26:51;1.00;0.00;0.00
65680;PMS5003;61747;54.966;73.394;2022-09-28T11:29:28;2.00;0.50;0.00
65680;PMS5003;61747;54.966;73.394;2022-09-28T11:32:13;1.00;1.00;0.00
65680;PMS5003;61747;54.966;73.394;2022-09-28T11:34:59;1.00;1.00;0.00
65680;PMS5003;61747;54.966;73.394;2022-09-28T11:37:33;0.00;0.00;0.00
65680;PMS5003;61747;54.966;73.394;2022-09-28T11:40:04;0.00;0.00;0.00
65680;PMS5003;61747;54.966;73.394;2022-09-28T11:47:55;0.00;0.00;0.00
65680;PMS5003;61747;54.966;73.394;2022-09-28T11:50:44;2.00;0.00;0.00
65680;PMS5003;61747;54.966;73.394;2022-09-28T11:56:24;0.50;0.50;0.00
65680;PMS5003;61747;54.966;73.394;2022-09-28T11:58:45;1.00;1.00;0.00
65680;PMS5003;61747;54.966;73.394;2022-09-28T12:04:17;0.75;0.75;0.00
65680;PMS5003;61747;54.966;73.394;2022-09-28T12:06:48;3.00;2.00;0.00
65680;PMS5003;61747;54.966;73.394;2022-09-28T12:09:19;2.00;0.00;0.00
65680;PMS5003;61747;54.966;73.394;2022-09-28T12:12:01;2.25;2.00;0.00
65680;PMS5003;61747;54.966;73.394;2022-09-28T12:14:53;2.25;2.00;0.00
65680;PMS5003;61747;54.966;73.394;2022-09-28T12:17:22;1.00;1.00;0.00
65680;PMS5003;61747;54.966;73.394;2022-09-28T12:20:00;0.00;0.00;0.00
65680;PMS5003;61747;54.966;73.394;2022-09-28T12:24:54;4.00;2.00;0.00
65680;PMS5003;61747;54.966;73.394;2022-09-28T12:27:39;2.00;1.50;0.00
65680;PMS5003;61747;54.966;73.394;2022-09-28T12:30:16;2.25;2.25;0.00
65680;PMS5003;61747;54.966;73.394;2022-09-28T12:40:22;2.00;2.00;0.00
65680;PMS5003;61747;54.966;73.394;2022-09-28T12:45:29;2.00;2.00;0.00
65680;PMS5003;61747;54.966;73.394;2022-09-28T12:56:00;3.75;3.00;1.50
65680;PMS5003;61747;54.966;73.394;2022-09-28T13:01:05;4.00;2.00;0.75
65680;PMS5003;61747;54.966;73.394;2022-09-28T13:03:40;3.00;2.00;1.00
65680;PMS5003;61747;54.966;73.394;2022-09-28T13:24:34;4.25;4.00;1.75
65680;PMS5003;61747;54.966;73.394;2022-09-28T13:27:03;5.00;4.00;0.00
65680;PMS5003;61747;54.966;73.394;2022-09-28T13:29:30;2.75;2.00;0.00
65680;PMS5003;61747;54.966;73.394;2022-09-28T13:32:08;2.00;2.00;0.00
65680;PMS5003;61747;54.966;73.394;2022-09-28T13:34:36;2.00;2.00;0.00
65680;PMS5003;61747;54.966;73.394;2022-09-28T13:39:49;2.00;2.00;0.00
65680;PMS5003;61747;54.966;73.394;2022-09-28T13:48:15;5.00;4.00;0.00
65680;PMS5003;61747;54.966;73.394;2022-09-28T13:52:47;3.00;3.00;0.00
65680;PMS5003;61747;54.966;73.394;2022-09-28T13:58:14;3.00;2.50;0.00
65680;PMS5003;61747;54.966;73.394;2022-09-28T14:01:49;4.00;3.00;0.00
65680;PMS5003;61747;54.966;73.394;2022-09-28T14:03:42;6.00;4.25;0.00
65680;PMS5003;61747;54.966;73.394;2022-09-28T14:08:44;6.00;5.00;2.00
65680;PMS5003;61747;54.966;73.394;2022-09-28T14:16:27;6.00;5.50;2.00
65680;PMS5003;61747;54.966;73.394;2022-09-28T14:24:16;6.75;5.00;2.00
65680;PMS5003;61747;54.966;73.394;2022-09-28T14:26:51;5.00;4.00;2.00
65680;PMS5003;61747;54.966;73.394;2022-09-28T14:29:28;6.00;4.25;2.00
65680;PMS5003;61747;54.966;73.394;2022-09-28T14:34:40;6.00;4.00;2.00
65680;PMS5003;61747;54.966;73.394;2022-09-28T14:37:20;4.00;3.00;1.00
65680;PMS5003;61747;54.966;73.394;2022-09-28T14:40:24;4.00;4.00;1.00
65680;PMS5003;61747;54.966;73.394;2022-09-28T14:43:19;3.00;3.00;1.00
65680;PMS5003;61747;54.966;73.394;2022-09-28T14:48:49;7.25;6.00;2.00
65680;PMS5003;61747;54.966;73.394;2022-09-28T14:54:02;9.00;6.00;3.00
65680;PMS5003;61747;54.966;73.394;2022-09-28T14:56:31;8.50;7.50;3.75
65680;PMS5003;61747;54.966;73.394;2022-09-28T14:59:02;8.50;5.50;2.00
65680;PMS5003;61747;54.966;73.394;2022-09-28T15:01:30;6.00;6.00;2.00
65680;PMS5003;61747;54.966;73.394;2022-09-28T15:03:58;7.00;5.00;2.00
65680;PMS5003;61747;54.966;73.394;2022-09-28T15:06:26;4.00;4.00;1.00
65680;PMS5003;61747;54.966;73.394;2022-09-28T15:09:24;4.00;3.00;0.00
65680;PMS5003;61747;54.966;73.394;2022-09-28T15:11:51;4.00;2.75;0.00
65680;PMS5003;61747;54.966;73.394;2022-09-28T15:14:21;4.00;4.00;0.00
65680;PMS5003;61747;54.966;73.394;2022-09-28T15:16:47;3.75;2.00;0.00
65680;PMS5003;61747;54.966;73.394;2022-09-28T15:19:30;4.25;2.75;0.50
65680;PMS5003;61747;54.966;73.394;2022-09-28T15:22:01;4.00;2.00;0.00
65680;PMS5003;61747;54.966;73.394;2022-09-28T15:26:53;3.50;2.00;0.00
65680;PMS5003;61747;54.966;73.394;2022-09-28T15:29:19;3.00;2.00;0.00
65680;PMS5003;61747;54.966;73.394;2022-09-28T15:31:49;3.00;2.00;0.00
65680;PMS5003;61747;54.966;73.394;2022-09-28T15:34:31;4.00;1.67;0.00
65680;PMS5003;61747;54.966;73.394;2022-09-28T15:37:17;3.50;2.25;0.00
65680;PMS5003;61747;54.966;73.394;2022-09-28T15:39:46;3.00;2.00;0.00
65680;PMS5003;61747;54.966;73.394;2022-09-28T15:42:13;4.00;4.00;0.00
65680;PMS5003;61747;54.966;73.394;2022-09-28T15:44:40;2.50;2.50;0.00
65680;PMS5003;61747;54.966;73.394;2022-09-28T15:47:13;5.25;2.50;1.00
65680;PMS5003;61747;54.966;73.394;2022-09-28T15:49:45;4.75;3.00;0.50
65680;PMS5003;61747;54.966;73.394;2022-09-28T15:52:20;4.75;4.00;1.50
65680;PMS5003;61747;54.966;73.394;2022-09-28T15:54:47;6.00;4.25;2.00
65680;PMS5003;61747;54.966;73.394;2022-09-28T15:59:57;6.00;4.00;1.50
65680;PMS5003;61747;54.966;73.394;2022-09-28T16:02:23;5.50;4.25;2.00
65680;PMS5003;61747;54.966;73.394;2022-09-28T16:04:51;8.50;7.00;2.00
65680;PMS5003;61747;54.966;73.394;2022-09-28T16:12:28;6.00;4.00;1.00
65680;PMS5003;61747;54.966;73.394;2022-09-28T16:14:55;4.25;4.00;0.00
65680;PMS5003;61747;54.966;73.394;2022-09-28T16:17:26;5.00;2.00;0.00
65680;PMS5003;61747;54.966;73.394;2022-09-28T16:20:25;3.25;2.00;0.00
65680;PMS5003;61747;54.966;73.394;2022-09-28T16:22:54;3.00;2.00;0.00
65680;PMS5003;61747;54.966;73.394;2022-09-28T16:25:22;2.00;2.00;0.00
65680;PMS5003;61747;54.966;73.394;2022-09-28T16:27:49;2.00;0.00;0.00
65680;PMS5003;61747;54.966;73.394;2022-09-28T16:30:17;1.00;0.00;0.00
65680;PMS5003;61747;54.966;73.394;2022-09-28T16:33:02;1.00;1.00;0.00
65680;PMS5003;61747;54.966;73.394;2022-09-28T16:38:11;1.00;0.00;0.00
65680;PMS5003;61747;54.966;73.394;2022-09-28T16:40:48;2.00;2.00;0.00
65680;PMS5003;61747;54.966;73.394;2022-09-28T16:43:20;2.00;1.25;0.00
65680;PMS5003;61747;54.966;73.394;2022-09-28T16:46:10;1.00;1.00;0.00
65680;PMS5003;61747;54.966;73.394;2022-09-28T16:48:39;2.00;2.00;0.00
65680;PMS5003;61747;54.966;73.394;2022-09-28T16:51:06;3.00;3.00;0.00
65680;PMS5003;61747;54.966;73.394;2022-09-28T16:53:31;1.75;1.75;0.00
65680;PMS5003;61747;54.966;73.394;2022-09-28T16:56:16;3.50;3.00;0.25
65680;PMS5003;61747;54.966;73.394;2022-09-28T16:58:42;2.75;2.00;1.00
65680;PMS5003;61747;54.966;73.394;2022-09-28T17:01:12;4.00;2.00;0.00
65680;PMS5003;61747;54.966;73.394;2022-09-28T17:03:38;6.00;4.00;0.00
65680;PMS5003;61747;54.966;73.394;2022-09-28T17:06:08;8.25;6.00;0.00
65680;PMS5003;61747;54.966;73.394;2022-09-28T17:08:36;6.00;4.00;1.00
65680;PMS5003;61747;54.966;73.394;2022-09-28T17:11:02;5.75;3.00;1.00
65680;PMS5003;61747;54.966;73.394;2022-09-28T17:13:30;4.00;4.00;0.00
65680;PMS5003;61747;54.966;73.394;2022-09-28T17:16:19;4.00;3.00;0.00
65680;PMS5003;61747;54.966;73.394;2022-09-28T17:18:44;4.00;3.00;0.00
65680;PMS5003;61747;54.966;73.394;2022-09-28T17:21:11;2.00;2.00;0.00
65680;PMS5003;61747;54.966;73.394;2022-09-28T17:23:37;4.00;4.00;0.50
65680;PMS5003;61747;54.966;73.394;2022-09-28T17:26:03;2.00;2.00;0.00
65680;PMS5003;61747;54.966;73.394;2022-09-28T17:28:33;4.75;3.75;0.00
65680;PMS5003;61747;54.966;73.394;2022-09-28T17:31:00;6.00;4.00;0.00
65680;PMS5003;61747;54.966;73.394;2022-09-28T17:33:26;3.50;2.50;0.00
65680;PMS5003;61747;54.966;73.394;2022-09-28T17:35:56;2.75;2.00;0.00
65680;PMS5003;61747;54.966;73.394;2022-09-28T17:38:34;2.00;0.00;0.00
65680;PMS5003;61747;54.966;73.394;2022-09-28T17:41:00;2.00;2.00;0.00
65680;PMS5003;61747;54.966;73.394;2022-09-28T17:43:26;2.00;2.00;0.00
65680;PMS5003;61747;54.966;73.394;2022-09-28T17:45:52;1.25;1.00;0.00
65680;PMS5003;61747;54.966;73.394;2022-09-28T17:48:18;0.00;0.00;0.00
65680;PMS5003;61747;54.966;73.394;2022-09-28T17:50:47;1.00;0.75;0.00
65680;PMS5003;61747;54.966;73.394;2022-09-28T17:53:13;2.00;2.00;0.00
65680;PMS5003;61747;54.966;73.394;2022-09-28T17:55:39;1.00;1.00;0.00